Time;durP1;ratioP1;P1;durP2;ratioP2;P2;SDS_P1;SDS_P2;PMS_P1;PMS_P2;Temp;Humidity;BMP_temperature;BMP_pressure;BME280_temperature;BME280_humidity;BME280_pressure;Samples;Min_cycle;Max_cycle;Signal;HPM_P1;HPM_P2
2021/01/28 00:04:35;;;;;;;3.38;1.80;;;9.30;64.20;;;;;;10268822;28;20065;-58
2021/01/28 00:09:36;;;;;;;4.38;1.95;;;9.30;64.20;;;;;;10288274;28;20510;-57
2021/01/28 00:14:36;;;;;;;3.03;1.77;;;9.30;64.20;;;;;;10282202;28;20106;-57
2021/01/28 00:19:37;;;;;;;4.38;1.75;;;9.30;64.20;;;;;;10286274;28;20038;-57
2021/01/28 00:24:38;;;;;;;3.00;1.70;;;9.20;64.20;;;;;;10279803;28;20031;-57
2021/01/28 00:29:38;;;;;;;3.35;2.13;;;9.30;64.20;;;;;;10270428;28;20054;-57
2021/01/28 00:34:39;;;;;;;2.53;1.40;;;9.30;64.20;;;;;;10293595;28;20050;-57
2021/01/28 00:39:40;;;;;;;3.75;1.73;;;9.30;64.20;;;;;;10287490;28;20542;-57
2021/01/28 00:44:41;;;;;;;3.15;1.90;;;9.30;64.20;;;;;;10282023;28;20035;-57
2021/01/28 00:49:41;;;;;;;2.78;1.73;;;9.30;64.20;;;;;;10276104;28;20098;-57
2021/01/28 00:54:42;;;;;;;2.38;1.65;;;9.20;64.40;;;;;;10270890;28;20102;-57
2021/01/28 00:59:43;;;;;;;2.85;1.50;;;9.30;64.20;;;;;;10265601;28;20432;-58
2021/01/28 01:04:43;;;;;;;2.42;1.67;;;9.30;64.20;;;;;;10259122;28;20110;-58
2021/01/28 01:09:44;;;;;;;3.50;1.70;;;9.20;64.20;;;;;;10289622;28;20079;-57
2021/01/28 01:14:45;;;;;;;2.67;1.50;;;9.30;64.20;;;;;;10291494;28;20436;-57
2021/01/28 01:19:45;;;;;;;2.85;1.95;;;9.20;64.20;;;;;;10273012;28;20520;-58
2021/01/28 01:24:46;;;;;;;2.88;1.70;;;9.30;64.20;;;;;;10297879;28;20511;-58
2021/01/28 01:29:47;;;;;;;3.20;2.00;;;9.20;64.20;;;;;;10286541;28;20109;-57
2021/01/28 01:34:47;;;;;;;2.47;1.90;;;9.20;64.20;;;;;;10284025;28;20050;-58
2021/01/28 01:39:48;;;;;;;3.22;1.77;;;9.30;64.30;;;;;;10278954;28;20109;-57
2021/01/28 01:44:49;;;;;;;2.90;1.70;;;9.20;64.20;;;;;;10272903;28;20387;-57
2021/01/28 01:49:50;;;;;;;2.63;1.75;;;9.30;64.30;;;;;;10280399;28;20021;-57
2021/01/28 01:54:52;;;;;;;3.50;1.83;;;9.20;64.10;;;;;;10269507;28;20059;-57
2021/01/28 02:00:01;;;;;;;3.13;1.60;;;9.20;64.20;;;;;;10271928;28;20484;-57
2021/01/28 02:05:13;;;;;;;2.83;1.83;;;9.30;64.20;;;;;;10289121;28;20032;-57
2021/01/28 02:10:16;;;;;;;2.67;1.80;;;9.20;64.10;;;;;;10279270;28;20514;-56
2021/01/28 02:15:17;;;;;;;2.70;1.33;;;9.30;64.20;;;;;;10288500;28;20027;-57
2021/01/28 02:20:32;;;;;;;2.92;2.00;;;9.20;64.20;;;;;;10284175;28;20047;-57
2021/01/28 02:25:36;;;;;;;3.08;1.70;;;9.20;64.20;;;;;;10266343;28;20023;-57
2021/01/28 02:30:38;;;;;;;2.25;1.45;;;9.30;64.20;;;;;;10260458;28;20110;-58
2021/01/28 02:35:39;;;;;;;2.95;1.85;;;9.20;64.10;;;;;;10266325;28;20361;-57
2021/01/28 02:40:40;;;;;;;3.22;2.00;;;9.20;64.20;;;;;;10287400;28;20039;-57
2021/01/28 02:45:41;;;;;;;2.60;1.80;;;9.20;64.80;;;;;;10279890;28;20034;-57
2021/01/28 02:50:42;;;;;;;2.88;1.58;;;9.20;64.20;;;;;;10274354;28;20110;-57
2021/01/28 02:55:42;;;;;;;3.72;2.03;;;9.30;64.10;;;;;;10268607;28;20108;-57
2021/01/28 03:00:43;;;;;;;2.28;1.58;;;9.20;64.10;;;;;;10263069;28;20027;-57
2021/01/28 03:05:44;;;;;;;2.65;1.75;;;9.20;64.10;;;;;;10267728;28;20463;-57
2021/01/28 03:10:45;;;;;;;2.75;2.00;;;9.20;64.20;;;;;;10286930;28;20015;-56
2021/01/28 03:15:46;;;;;;;2.97;1.90;;;9.30;64.20;;;;;;10280420;28;20113;-57
2021/01/28 03:20:47;;;;;;;4.05;1.73;;;9.20;64.10;;;;;;10267528;28;20446;-57
2021/01/28 03:25:48;;;;;;;2.53;1.60;;;9.20;64.20;;;;;;10279483;28;20078;-57
2021/01/28 03:30:50;;;;;;;3.38;2.05;;;9.20;64.20;;;;;;10286669;28;20019;-56
2021/01/28 03:35:51;;;;;;;3.17;1.80;;;9.30;64.20;;;;;;10280818;28;20037;-57
2021/01/28 03:40:52;;;;;;;2.97;2.17;;;9.20;64.10;;;;;;10284815;28;20046;-57
2021/01/28 03:45:53;;;;;;;4.22;1.70;;;9.20;64.20;;;;;;10305107;28;20086;-57
2021/01/28 03:50:54;;;;;;;2.65;1.52;;;9.20;64.10;;;;;;10290898;28;20563;-57
2021/01/28 03:55:55;;;;;;;3.40;1.65;;;9.20;64.10;;;;;;10296736;28;20041;-58
2021/01/28 04:00:56;;;;;;;2.95;1.92;;;9.20;64.10;;;;;;10297532;28;20027;-57
2021/01/28 04:05:56;;;;;;;3.92;1.80;;;9.20;64.20;;;;;;10298328;28;20034;-57
2021/01/28 04:10:57;;;;;;;3.33;1.50;;;9.20;64.10;;;;;;10293845;28;20026;-57
2021/01/28 04:15:58;;;;;;;3.20;1.70;;;9.30;64.20;;;;;;10293622;28;20110;-57
2021/01/28 04:20:58;;;;;;;3.63;1.98;;;9.20;64.10;;;;;;10297966;28;20161;-57
2021/01/28 04:25:59;;;;;;;3.00;1.70;;;9.20;64.20;;;;;;10297679;28;20106;-57
2021/01/28 04:31:00;;;;;;;3.30;1.90;;;9.20;64.20;;;;;;10297705;28;20050;-57
2021/01/28 04:36:02;;;;;;;2.45;1.30;;;9.20;64.20;;;;;;10297351;28;20106;-57
2021/01/28 04:41:28;;;;;;;2.13;1.45;;;9.20;64.20;;;;;;10295721;28;20443;-57
2021/01/28 04:46:41;;;;;;;3.38;2.28;;;9.20;64.10;;;;;;10296967;28;20030;-57
2021/01/28 04:51:46;;;;;;;3.10;1.75;;;9.20;64.10;;;;;;10311840;28;20026;-56
2021/01/28 04:56:46;;;;;;;2.42;1.40;;;9.20;64.20;;;;;;10311581;28;20022;-57
2021/01/28 05:01:47;;;;;;;3.10;1.60;;;9.20;64.10;;;;;;10296339;28;20065;-57
2021/01/28 05:06:52;;;;;;;2.03;1.40;;;9.20;64.10;;;;;;10291821;28;20519;-56
2021/01/28 05:11:57;;;;;;;3.40;1.88;;;9.20;64.10;;;;;;10292940;28;20579;-57
2021/01/28 05:17:05;;;;;;;3.33;1.55;;;9.20;64.20;;;;;;10290517;28;20019;-57
2021/01/28 05:22:27;;;;;;;3.35;2.08;;;9.20;64.20;;;;;;10295965;28;20031;-58
2021/01/28 05:27:35;;;;;;;2.60;1.85;;;9.20;64.10;;;;;;10286332;28;20031;-57
2021/01/28 05:32:47;;;;;;;2.88;1.58;;;9.20;64.20;;;;;;10294039;28;20595;-57
2021/01/28 05:38:01;;;;;;;2.63;1.42;;;9.20;64.10;;;;;;10295116;28;20019;-57
2021/01/28 05:43:20;;;;;;;2.85;1.65;;;9.20;64.10;;;;;;10289797;28;20037;-57
2021/01/28 05:48:29;;;;;;;2.53;1.55;;;9.20;64.20;;;;;;10294100;28;20038;-57
2021/01/28 05:53:30;;;;;;;3.20;1.85;;;9.20;64.10;;;;;;10293499;28;20034;-58
2021/01/28 05:58:32;;;;;;;3.50;1.90;;;9.20;64.10;;;;;;10294802;28;20027;-57
2021/01/28 06:04:25;;;;;;;3.03;1.75;;;9.20;64.20;;;;;;10293854;28;20034;-57
2021/01/28 06:10:14;;;;;;;2.50;1.50;;;9.20;64.10;;;;;;10293584;28;20046;-57
2021/01/28 06:15:48;;;;;;;1.95;1.30;;;9.20;64.10;;;;;;10290080;28;20027;-57
2021/01/28 06:21:00;;;;;;;3.00;1.90;;;9.20;64.20;;;;;;10293461;28;20034;-57
2021/01/28 06:26:20;;;;;;;3.78;2.38;;;9.20;64.10;;;;;;10293782;28;20110;-57
2021/01/28 06:32:03;;;;;;;2.72;1.67;;;9.20;64.20;;;;;;10292250;28;20070;-57
2021/01/28 06:37:30;;;;;;;2.03;1.33;;;9.20;64.70;;;;;;10291982;28;20062;-57
2021/01/28 06:42:43;;;;;;;3.13;1.50;;;9.20;64.10;;;;;;10278260;28;20353;-57
2021/01/28 06:48:02;;;;;;;3.38;1.80;;;9.20;64.20;;;;;;10291332;28;20035;-58
2021/01/28 06:53:10;;;;;;;2.55;1.52;;;9.20;64.10;;;;;;10292488;28;20411;-57
2021/01/28 06:58:54;;;;;;;3.05;1.90;;;9.20;64.10;;;;;;10292060;28;20077;-57
2021/01/28 07:04:13;;;;;;;2.97;1.83;;;9.20;64.10;;;;;;10291963;28;20377;-58
2021/01/28 07:09:21;;;;;;;2.72;1.95;;;9.20;64.20;;;;;;10291654;28;20050;-58
2021/01/28 07:14:23;;;;;;;3.22;1.52;;;9.20;64.20;;;;;;10280712;28;20038;-57
2021/01/28 07:19:29;;;;;;;3.30;1.48;;;9.20;64.20;;;;;;10290068;28;20364;-57
2021/01/28 07:24:36;;;;;;;2.60;1.52;;;9.20;64.20;;;;;;10290312;28;20042;-57
2021/01/28 07:29:46;;;;;;;3.67;1.80;;;9.20;64.20;;;;;;10296171;28;20031;-57
2021/01/28 07:35:24;;;;;;;2.90;1.52;;;9.20;64.20;;;;;;10304997;28;20396;-58
2021/01/28 07:41:16;;;;;;;4.57;1.70;;;9.20;64.20;;;;;;10304944;28;20039;-57
2021/01/28 07:46:28;;;;;;;2.88;1.70;;;9.20;64.20;;;;;;10274236;28;20089;-58
2021/01/28 07:51:42;;;;;;;3.40;1.52;;;9.20;64.20;;;;;;10303602;28;20034;-58
2021/01/28 07:56:47;;;;;;;2.47;1.67;;;9.20;64.20;;;;;;10300000;28;20036;-58
2021/01/28 08:01:54;;;;;;;2.75;2.05;;;9.20;64.20;;;;;;10298874;28;20089;-57
2021/01/28 08:06:58;;;;;;;2.67;1.58;;;9.20;64.20;;;;;;10299624;28;20074;-57
2021/01/28 08:11:59;;;;;;;3.67;2.08;;;9.20;64.20;;;;;;10300484;28;20026;-58
2021/01/28 08:17:00;;;;;;;5.00;1.80;;;9.20;64.20;;;;;;10302761;28;20033;-57
2021/01/28 08:22:19;;;;;;;2.40;1.50;;;9.10;64.20;;;;;;10301190;28;20090;-57
2021/01/28 08:27:34;;;;;;;3.57;2.00;;;9.20;64.20;;;;;;10301126;28;20455;-56
2021/01/28 08:32:35;;;;;;;2.65;1.70;;;9.20;64.20;;;;;;10299564;28;20053;-57
2021/01/28 08:37:37;;;;;;;2.30;1.38;;;9.20;64.20;;;;;;10303891;28;20046;-57
2021/01/28 08:42:37;;;;;;;3.22;1.80;;;9.20;64.30;;;;;;10298137;28;20034;-57
2021/01/28 08:47:39;;;;;;;2.58;1.67;;;9.20;64.20;;;;;;10312438;28;20031;-56
2021/01/28 08:52:45;;;;;;;2.85;1.48;;;9.20;64.20;;;;;;10297423;28;20062;-57
2021/01/28 08:57:46;;;;;;;1.77;1.23;;;9.20;64.20;;;;;;10286739;28;20492;-57
2021/01/28 09:02:51;;;;;;;2.50;1.52;;;9.20;64.20;;;;;;10295987;28;20038;-58
2021/01/28 09:08:04;;;;;;;2.60;1.60;;;9.20;64.20;;;;;;10282297;28;20047;-56
2021/01/28 09:13:19;;;;;;;3.20;2.25;;;9.20;64.20;;;;;;10272742;28;20037;-58
2021/01/28 09:18:32;;;;;;;2.13;1.52;;;9.20;64.20;;;;;;10296947;28;20113;-58
2021/01/28 09:23:33;;;;;;;2.35;1.70;;;9.20;64.20;;;;;;10294866;28;20035;-57
2021/01/28 09:28:34;;;;;;;2.70;1.58;;;9.20;64.20;;;;;;10287632;28;20102;-58
2021/01/28 09:33:38;;;;;;;2.70;1.50;;;9.20;64.20;;;;;;10295965;28;20081;-57
2021/01/28 09:38:40;;;;;;;2.58;2.13;;;9.20;64.30;;;;;;10288039;28;20031;-58
2021/01/28 09:43:41;;;;;;;2.28;1.42;;;9.20;64.30;;;;;;10294219;28;20043;-58
2021/01/28 09:48:42;;;;;;;1.70;1.10;;;9.20;64.20;;;;;;10295233;28;20049;-58
2021/01/28 09:54:10;;;;;;;3.00;1.88;;;9.20;64.30;;;;;;10293366;28;20479;-57
2021/01/28 09:59:14;;;;;;;1.60;1.17;;;9.20;64.20;;;;;;10284300;28;20038;-58
2021/01/28 10:04:15;;;;;;;2.05;1.23;;;9.20;64.30;;;;;;10293379;28;20027;-58
2021/01/28 10:09:16;;;;;;;2.33;1.42;;;9.20;64.30;;;;;;10295019;28;20074;-58
2021/01/28 10:14:16;;;;;;;2.08;1.30;;;9.20;64.30;;;;;;10294825;28;20046;-57
2021/01/28 10:19:17;;;;;;;1.85;1.30;;;9.20;64.30;;;;;;10284355;28;20031;-58
2021/01/28 10:24:18;;;;;;;2.47;1.58;;;9.20;64.30;;;;;;10293871;28;20071;-57
2021/01/28 10:29:18;;;;;;;1.70;1.10;;;9.20;64.30;;;;;;10286268;28;20487;-57
2021/01/28 10:34:19;;;;;;;2.85;1.52;;;9.20;64.30;;;;;;10293729;28;20117;-57
2021/01/28 10:39:20;;;;;;;2.78;1.75;;;9.20;64.30;;;;;;10293325;28;20198;-57
2021/01/28 10:44:21;;;;;;;2.05;1.45;;;9.20;64.30;;;;;;10293117;28;20069;-57
2021/01/28 10:49:22;;;;;;;2.00;1.20;;;9.20;64.20;;;;;;10293134;28;20015;-58
2021/01/28 10:54:23;;;;;;;2.20;1.50;;;9.20;64.30;;;;;;10292688;28;20058;-57
2021/01/28 10:59:23;;;;;;;1.90;1.33;;;9.20;64.20;;;;;;10293315;28;20030;-58
2021/01/28 11:04:24;;;;;;;1.92;1.25;;;9.20;64.30;;;;;;10291685;28;20090;-57
2021/01/28 11:09:24;;;;;;;1.80;1.13;;;9.20;64.30;;;;;;10292245;28;20117;-57
2021/01/28 11:14:25;;;;;;;2.40;1.55;;;9.20;64.30;;;;;;10292053;28;20463;-58
2021/01/28 11:19:26;;;;;;;3.05;1.60;;;9.20;64.30;;;;;;10283609;28;20492;-57
2021/01/28 11:24:28;;;;;;;2.38;1.45;;;9.10;64.30;;;;;;10290842;28;20031;-57
2021/01/28 11:29:29;;;;;;;2.33;1.35;;;9.20;64.40;;;;;;10284860;28;20471;-58
2021/01/28 11:34:30;;;;;;;2.75;1.42;;;9.20;64.30;;;;;;10292299;28;20081;-57
2021/01/28 11:39:30;;;;;;;1.80;1.20;;;9.20;64.30;;;;;;10306767;28;20023;-57
2021/01/28 11:44:31;;;;;;;1.98;1.17;;;9.10;64.30;;;;;;10291716;28;20050;-58
2021/01/28 11:49:32;;;;;;;2.03;1.10;;;9.20;64.30;;;;;;10295728;28;20023;-58
2021/01/28 11:54:32;;;;;;;2.33;1.25;;;9.20;64.40;;;;;;10292169;28;20106;-58
2021/01/28 11:59:33;;;;;;;2.00;1.17;;;9.20;64.30;;;;;;10290144;28;20058;-58
2021/01/28 12:04:34;;;;;;;1.80;1.27;;;9.20;64.30;;;;;;10291506;28;20117;-58
2021/01/28 12:09:34;;;;;;;2.17;1.48;;;9.20;64.30;;;;;;10290056;28;20126;-58
2021/01/28 12:14:35;;;;;;;2.30;1.30;;;9.20;64.40;;;;;;10292599;28;20038;-58
2021/01/28 12:19:36;;;;;;;2.00;1.33;;;9.20;64.40;;;;;;10314637;28;20109;-58
2021/01/28 12:24:36;;;;;;;2.88;1.73;;;9.10;64.40;;;;;;10295881;28;20066;-57
2021/01/28 12:29:40;;;;;;;2.53;1.40;;;9.10;64.40;;;;;;10298032;28;20058;-57
2021/01/28 12:34:41;;;;;;;2.75;1.35;;;9.20;64.40;;;;;;10298221;28;20426;-57
2021/01/28 12:39:42;;;;;;;2.38;1.58;;;9.10;64.40;;;;;;10297858;28;20026;-58
2021/01/28 12:44:43;;;;;;;1.40;0.93;;;9.10;64.50;;;;;;10296114;28;20479;-57
2021/01/28 12:49:45;;;;;;;3.00;1.58;;;9.10;64.40;;;;;;10296050;28;20031;-58
2021/01/28 12:54:45;;;;;;;2.25;1.52;;;9.20;64.50;;;;;;10297414;28;20652;-57
2021/01/28 12:59:46;;;;;;;2.25;1.40;;;9.20;64.50;;;;;;10295510;28;20055;-57
2021/01/28 13:04:47;;;;;;;3.13;1.50;;;9.20;64.50;;;;;;10296735;28;20033;-56
2021/01/28 13:09:47;;;;;;;2.03;1.40;;;9.20;64.50;;;;;;10295363;28;20047;-57
2021/01/28 13:14:48;;;;;;;2.13;1.30;;;9.20;64.50;;;;;;10296496;28;20034;-57
2021/01/28 13:19:51;;;;;;;1.80;1.48;;;9.20;64.50;;;;;;10296823;28;20591;-57
2021/01/28 13:24:51;;;;;;;2.15;1.40;;;9.20;64.50;;;;;;10296285;28;20038;-57
2021/01/28 13:29:52;;;;;;;2.08;1.45;;;9.20;64.50;;;;;;10293175;28;20061;-57
2021/01/28 13:34:53;;;;;;;2.38;1.40;;;9.20;64.50;;;;;;10294608;28;20035;-57
2021/01/28 13:39:56;;;;;;;2.03;1.20;;;9.10;64.50;;;;;;10295330;28;20411;-57
2021/01/28 13:44:57;;;;;;;2.80;1.83;;;9.20;64.60;;;;;;10295455;28;20031;-57
2021/01/28 13:49:57;;;;;;;1.60;1.20;;;9.10;64.50;;;;;;10295344;28;20113;-57
2021/01/28 13:54:58;;;;;;;2.28;1.50;;;9.20;64.60;;;;;;10309022;28;20026;-57
2021/01/28 13:59:59;;;;;;;1.73;1.00;;;9.20;64.60;;;;;;10293653;28;20491;-57
2021/01/28 14:05:00;;;;;;;4.00;1.92;;;9.20;64.60;;;;;;10294281;28;20143;-57
2021/01/28 14:10:00;;;;;;;2.05;1.27;;;9.10;64.60;;;;;;10294256;28;20074;-57
2021/01/28 14:15:01;;;;;;;1.85;1.20;;;9.10;64.60;;;;;;10294125;28;20503;-57
2021/01/28 14:20:04;;;;;;;1.70;0.98;;;9.20;64.60;;;;;;10292803;28;20109;-57
2021/01/28 14:25:06;;;;;;;2.00;1.35;;;9.10;64.50;;;;;;10282643;28;20037;-57
2021/01/28 14:30:10;;;;;;;2.00;1.33;;;9.10;64.50;;;;;;10308433;28;20026;-58
2021/01/28 14:35:13;;;;;;;2.42;1.45;;;9.10;64.50;;;;;;10292506;28;20085;-57
2021/01/28 14:40:16;;;;;;;2.17;1.45;;;9.20;64.50;;;;;;10292282;28;20023;-58
2021/01/28 14:45:20;;;;;;;1.77;1.20;;;9.10;64.60;;;;;;10292949;28;20471;-57
2021/01/28 14:50:21;;;;;;;2.28;1.50;;;9.10;64.50;;;;;;10292997;28;20022;-57
2021/01/28 14:55:22;;;;;;;2.05;1.42;;;9.10;64.60;;;;;;10282503;28;20034;-57
2021/01/28 15:00:25;;;;;;;1.88;1.27;;;9.20;64.60;;;;;;10292784;28;20031;-57
2021/01/28 15:05:26;;;;;;;1.70;1.10;;;9.10;64.50;;;;;;10292499;28;20054;-57
2021/01/28 15:10:27;;;;;;;2.50;1.63;;;9.10;64.60;;;;;;10292443;28;20057;-57
2021/01/28 15:15:27;;;;;;;1.92;1.13;;;9.20;64.60;;;;;;10291123;28;20029;-58
2021/01/28 15:20:28;;;;;;;2.17;1.30;;;9.10;64.60;;;;;;10292070;28;20033;-58
2021/01/28 15:25:29;;;;;;;1.30;1.10;;;9.20;64.60;;;;;;10292287;28;20479;-58
2021/01/28 15:30:29;;;;;;;1.40;1.30;;;9.10;64.60;;;;;;10289543;28;20284;-57
2021/01/28 15:35:31;;;;;;;1.88;1.10;;;9.20;64.60;;;;;;10291930;28;20026;-57
2021/01/28 15:40:32;;;;;;;1.83;1.25;;;9.10;64.60;;;;;;10290576;28;20027;-57
2021/01/28 15:45:33;;;;;;;1.67;1.00;;;9.10;64.50;;;;;;10291423;28;20475;-57
2021/01/28 15:50:33;;;;;;;1.75;0.90;;;9.10;64.60;;;;;;10285162;28;20383;-57
2021/01/28 15:55:34;;;;;;;2.30;1.48;;;9.10;64.60;;;;;;10290914;28;20481;-57
2021/01/28 16:00:38;;;;;;;1.40;0.90;;;9.10;64.60;;;;;;10281482;28;20395;-57
2021/01/28 16:05:41;;;;;;;2.58;1.50;;;9.10;64.60;;;;;;10298966;28;20491;-57
2021/01/28 16:10:42;;;;;;;1.90;1.20;;;9.10;64.60;;;;;;10297892;28;20035;-58
2021/01/28 16:15:42;;;;;;;2.03;1.10;;;9.20;64.90;;;;;;10299086;28;20022;-58
2021/01/28 16:20:43;;;;;;;1.50;0.95;;;9.30;64.70;;;;;;10297923;28;20038;-57
2021/01/28 16:25:44;;;;;;;1.40;0.90;;;9.30;64.50;;;;;;10298487;28;20447;-57
2021/01/28 16:30:44;;;;;;;1.58;1.10;;;9.40;64.30;;;;;;10294950;28;20102;-57
2021/01/28 16:35:45;;;;;;;1.70;0.90;;;9.50;64.20;;;;;;10297716;28;20037;-57
2021/01/28 16:40:46;;;;;;;1.58;0.98;;;9.60;64.00;;;;;;10296611;28;20030;-57
2021/01/28 16:45:49;;;;;;;1.05;0.90;;;9.70;63.90;;;;;;10297951;28;20105;-58
2021/01/28 16:50:50;;;;;;;0.90;0.57;;;9.70;63.70;;;;;;10288432;28;20031;-58
2021/01/28 16:55:51;;;;;;;1.40;0.85;;;9.80;63.60;;;;;;10297452;28;20035;-58
2021/01/28 17:00:51;;;;;;;1.20;0.80;;;9.90;63.50;;;;;;10295510;28;20380;-58
2021/01/28 17:05:52;;;;;;;1.90;1.20;;;9.90;63.40;;;;;;10296366;28;20082;-57
2021/01/28 17:10:53;;;;;;;1.75;0.80;;;10.00;63.30;;;;;;10296400;28;20429;-58
2021/01/28 17:15:54;;;;;;;1.95;1.08;;;10.10;63.20;;;;;;10296048;28;20105;-58
2021/01/28 17:20:54;;;;;;;1.55;0.82;;;10.10;63.00;;;;;;10296086;28;20101;-58
2021/01/28 17:25:55;;;;;;;1.02;0.68;;;10.20;63.00;;;;;;10295654;28;20027;-59
2021/01/28 17:30:57;;;;;;;1.52;0.90;;;10.20;62.90;;;;;;10293411;28;20065;-58
2021/01/28 17:35:59;;;;;;;1.27;0.82;;;10.30;62.80;;;;;;10295202;28;20030;-58
2021/01/28 17:40:59;;;;;;;1.33;0.60;;;10.40;62.60;;;;;;10295254;28;20122;-58
2021/01/28 17:46:00;;;;;;;0.93;0.60;;;10.40;62.60;;;;;;10294957;28;20118;-58
2021/01/28 17:51:03;;;;;;;0.98;0.73;;;10.50;62.50;;;;;;10293473;28;20046;-58
2021/01/28 17:56:04;;;;;;;1.30;0.70;;;10.50;62.40;;;;;;10293936;28;20502;-58
2021/01/28 18:01:05;;;;;;;1.33;0.80;;;10.60;62.30;;;;;;10294635;28;20365;-58
2021/01/28 18:06:06;;;;;;;1.50;0.82;;;10.60;62.30;;;;;;10293977;28;20047;-58
2021/01/28 18:11:06;;;;;;;1.30;0.70;;;10.60;62.10;;;;;;10294254;28;20114;-58
2021/01/28 18:16:07;;;;;;;1.60;0.75;;;10.70;62.00;;;;;;10281861;28;20109;-57
2021/01/28 18:21:08;;;;;;;1.27;0.77;;;10.70;62.40;;;;;;10293644;28;20114;-57
2021/01/28 18:26:08;;;;;;;1.35;0.70;;;10.80;61.90;;;;;;10293291;28;20142;-57
2021/01/28 18:31:09;;;;;;;1.13;0.88;;;10.80;61.80;;;;;;10291456;28;20029;-57
2021/01/28 18:36:10;;;;;;;1.42;0.90;;;10.90;61.80;;;;;;10293040;28;20114;-58
2021/01/28 18:41:10;;;;;;;0.90;0.70;;;10.90;61.70;;;;;;10292866;28;20113;-57
2021/01/28 18:46:12;;;;;;;1.13;0.70;;;11.00;61.70;;;;;;10292927;28;20134;-57
2021/01/28 18:51:13;;;;;;;2.45;1.10;;;11.00;61.50;;;;;;10292724;28;20034;-57
2021/01/28 18:56:14;;;;;;;0.82;0.60;;;11.00;61.40;;;;;;10286929;28;20496;-57
2021/01/28 19:01:15;;;;;;;0.93;0.60;;;11.10;61.30;;;;;;10292268;28;20038;-57
2021/01/28 19:06:16;;;;;;;1.20;0.90;;;11.10;61.30;;;;;;10291761;28;20408;-58
2021/01/28 19:11:19;;;;;;;1.38;0.90;;;11.20;61.30;;;;;;10281840;28;20117;-58
2021/01/28 19:16:20;;;;;;;1.75;0.77;;;11.20;61.20;;;;;;10278704;28;20035;-58
2021/01/28 19:21:21;;;;;;;1.55;0.73;;;11.20;61.10;;;;;;10292389;28;20115;-58
2021/01/28 19:26:24;;;;;;;0.98;0.60;;;11.20;61.70;;;;;;10290861;28;20046;-58
2021/01/28 19:31:25;;;;;;;1.45;0.90;;;11.30;61.10;;;;;;10289190;28;20026;-58
2021/01/28 19:36:26;;;;;;;1.00;0.60;;;11.30;61.00;;;;;;10291832;28;20109;-58
2021/01/28 19:41:28;;;;;;;0.82;0.63;;;11.40;61.00;;;;;;10291810;28;20086;-57
2021/01/28 19:46:28;;;;;;;1.17;0.80;;;11.40;60.80;;;;;;10292218;28;20478;-58
2021/01/28 19:51:29;;;;;;;1.33;0.80;;;11.50;60.80;;;;;;10291258;28;20023;-58
2021/01/28 19:56:30;;;;;;;1.27;0.88;;;11.50;60.70;;;;;;10291532;28;20054;-58
2021/01/28 20:01:31;;;;;;;0.98;0.50;;;11.60;60.70;;;;;;10305898;28;20118;-58
2021/01/28 20:06:32;;;;;;;1.02;0.70;;;11.60;60.60;;;;;;10290659;28;20612;-57
2021/01/28 20:11:33;;;;;;;1.45;0.98;;;11.60;60.60;;;;;;10289608;28;20029;-57
2021/01/28 20:16:34;;;;;;;1.73;0.82;;;11.60;60.50;;;;;;10290741;28;20109;-57
2021/01/28 20:21:35;;;;;;;1.17;0.60;;;11.60;60.50;;;;;;10289380;28;20117;-58
2021/01/28 20:26:36;;;;;;;1.00;0.75;;;11.70;60.50;;;;;;10287531;28;20504;-58
2021/01/28 20:31:37;;;;;;;1.42;0.80;;;11.70;60.40;;;;;;10288161;28;20023;-58
2021/01/28 20:36:38;;;;;;;1.13;0.88;;;11.70;60.50;;;;;;10293012;28;20045;-58
2021/01/28 20:41:39;;;;;;;1.08;0.65;;;11.70;60.30;;;;;;10297518;28;20027;-58
2021/01/28 20:46:40;;;;;;;1.17;0.73;;;11.80;60.30;;;;;;10297320;28;20035;-58
2021/01/28 20:51:41;;;;;;;1.20;0.73;;;11.80;60.80;;;;;;10295869;28;20042;-57
2021/01/28 20:56:41;;;;;;;2.35;0.70;;;11.80;60.20;;;;;;10296934;28;20475;-57
2021/01/28 21:01:42;;;;;;;1.60;0.90;;;11.90;60.00;;;;;;10297338;28;20066;-57
2021/01/28 21:06:43;;;;;;;1.05;0.68;;;12.00;59.90;;;;;;10296243;28;20063;-57
2021/01/28 21:11:44;;;;;;;2.63;0.85;;;12.00;59.90;;;;;;10296553;28;20102;-58
2021/01/28 21:16:45;;;;;;;1.23;0.80;;;12.00;59.80;;;;;;10296439;28;20073;-58
2021/01/28 21:21:46;;;;;;;1.58;0.90;;;12.10;59.70;;;;;;10296125;28;20026;-58
2021/01/28 21:26:47;;;;;;;1.70;1.00;;;12.10;59.60;;;;;;10294707;28;20034;-58
2021/01/28 21:31:48;;;;;;;1.05;0.80;;;12.20;59.60;;;;;;10293226;28;20038;-58
2021/01/28 21:36:49;;;;;;;1.15;0.82;;;12.20;59.60;;;;;;10295650;28;20054;-58
2021/01/28 21:41:49;;;;;;;1.70;0.63;;;12.30;59.50;;;;;;10294220;28;20037;-58
2021/01/28 21:46:50;;;;;;;1.17;0.70;;;12.30;59.40;;;;;;10294743;28;20041;-57
2021/01/28 21:51:50;;;;;;;1.42;0.90;;;12.30;59.40;;;;;;10292254;28;20063;-58
2021/01/28 21:56:51;;;;;;;1.92;0.95;;;12.30;59.30;;;;;;10294549;28;20039;-58
2021/01/28 22:01:52;;;;;;;1.20;0.80;;;12.30;59.30;;;;;;10294458;28;20023;-58
2021/01/28 22:06:53;;;;;;;1.45;0.95;;;12.40;59.30;;;;;;10293837;28;20471;-58
2021/01/28 22:11:54;;;;;;;1.27;1.00;;;12.50;59.10;;;;;;10294215;28;20379;-58
2021/01/28 22:16:54;;;;;;;2.20;0.88;;;12.40;59.30;;;;;;10293969;28;20080;-58
2021/01/28 22:21:55;;;;;;;1.85;1.00;;;12.50;59.30;;;;;;10293620;28;20126;-58
2021/01/28 22:26:56;;;;;;;1.30;0.95;;;12.40;59.30;;;;;;10293541;28;20031;-58
2021/01/28 22:31:58;;;;;;;1.63;0.90;;;12.50;59.10;;;;;;10286062;28;20425;-58
2021/01/28 22:36:58;;;;;;;1.77;1.23;;;12.50;59.20;;;;;;10293181;28;20387;-58
2021/01/28 22:42:00;;;;;;;1.35;1.02;;;12.50;59.10;;;;;;10291866;28;20029;-58
2021/01/28 22:47:01;;;;;;;1.85;0.80;;;12.50;59.00;;;;;;10292796;28;20034;-58
2021/01/28 22:52:02;;;;;;;1.40;0.90;;;12.50;59.00;;;;;;10288624;28;20030;-58
2021/01/28 22:57:04;;;;;;;1.33;1.00;;;12.60;59.10;;;;;;10292269;28;20114;-58
2021/01/28 23:02:04;;;;;;;1.98;1.20;;;12.60;58.90;;;;;;10291958;28;20031;-58
2021/01/28 23:07:05;;;;;;;1.88;1.02;;;12.70;59.00;;;;;;10291987;28;20046;-58
2021/01/28 23:12:06;;;;;;;1.48;1.02;;;12.70;58.80;;;;;;10292033;28;20023;-59
2021/01/28 23:17:07;;;;;;;1.90;1.13;;;12.70;58.80;;;;;;10292444;28;20134;-58
2021/01/28 23:22:08;;;;;;;1.45;1.00;;;12.70;58.70;;;;;;10292774;28;20109;-57
2021/01/28 23:27:10;;;;;;;1.88;1.20;;;12.70;58.80;;;;;;10283218;28;20038;-58
2021/01/28 23:32:11;;;;;;;2.13;1.25;;;12.80;58.80;;;;;;10290177;28;20038;-57
2021/01/28 23:37:11;;;;;;;1.17;0.88;;;12.80;58.90;;;;;;10291934;28;20550;-57
2021/01/28 23:42:13;;;;;;;1.80;0.85;;;12.80;58.80;;;;;;10291156;28;20081;-57
2021/01/28 23:47:13;;;;;;;1.83;1.08;;;12.80;58.70;;;;;;10290133;28;20030;-57
2021/01/28 23:52:14;;;;;;;1.27;0.80;;;12.80;58.70;;;;;;10292142;28;20034;-57
2021/01/28 23:57:15;;;;;;;1.70;1.13;;;12.80;58.80;;;;;;10283333;28;20035;-57
